Time;durP1;ratioP1;P1;durP2;ratioP2;P2;SDS_P1;SDS_P2;PMS_P1;PMS_P2;Temp;Humidity;BMP_temperature;BMP_pressure;BME280_temperature;BME280_humidity;BME280_pressure;Samples;Min_cycle;Max_cycle;Signal;HPM_P1;HPM_P2
2022/08/29 00:01:01;;;;;;;2.70;1.77;;;;;;;13.63;81.99;102287.28;5013723;28;20050;-76
2022/08/29 00:03:30;;;;;;;6.75;1.80;;;;;;;13.60;82.28;102283.53;5013365;28;20042;-76
2022/08/29 00:05:57;;;;;;;2.83;1.73;;;;;;;13.56;82.17;102287.50;5011212;28;20054;-76
2022/08/29 00:08:24;;;;;;;2.50;1.65;;;;;;;13.54;81.69;102287.91;5011897;28;20046;-76
2022/08/29 00:10:53;;;;;;;2.63;1.40;;;;;;;13.51;81.83;102288.75;5013239;28;20101;-76
2022/08/29 00:13:20;;;;;;;4.10;1.60;;;;;;;13.44;81.88;102291.63;5013411;28;20475;-76
2022/08/29 00:15:47;;;;;;;2.47;1.70;;;;;;;13.35;82.63;102294.88;5013407;28;20073;-76
2022/08/29 00:18:16;;;;;;;4.88;1.88;;;;;;;13.31;82.21;102280.09;5028811;28;20549;-76
2022/08/29 00:20:44;;;;;;;2.28;1.50;;;;;;;13.29;81.81;102283.19;5011110;28;20050;-76
2022/08/29 00:23:11;;;;;;;3.30;1.80;;;;;;;13.24;82.71;102282.94;5011500;28;20050;-76
2022/08/29 00:25:38;;;;;;;2.72;1.70;;;;;;;13.17;82.48;102293.84;5012431;28;20123;-76
2022/08/29 00:28:05;;;;;;;1.88;1.75;;;;;;;13.11;82.56;102287.47;5012955;28;20042;-76
2022/08/29 00:30:32;;;;;;;2.22;1.92;;;;;;;13.07;82.94;102292.13;5013061;28;20050;-77
2022/08/29 00:32:58;;;;;;;3.17;1.58;;;;;;;13.05;82.67;102299.81;5012590;28;20105;-77
2022/08/29 00:35:32;;;;;;;2.70;1.92;;;;;;;13.03;82.25;102294.91;5012619;28;20077;-76
2022/08/29 00:37:59;;;;;;;4.22;1.63;;;;;;;13.02;82.04;102291.47;5012911;28;20539;-76
2022/08/29 00:40:30;;;;;;;1.70;1.60;;;;;;;13.01;82.42;102298.00;5012725;28;20038;-76
2022/08/29 00:42:57;;;;;;;2.37;1.60;;;;;;;13.00;82.45;102299.16;5012964;28;20047;-76
2022/08/29 00:45:24;;;;;;;2.42;1.48;;;;;;;12.99;82.90;102302.25;5012716;28;20046;-77
2022/08/29 00:47:56;;;;;;;2.83;1.88;;;;;;;12.95;82.87;102296.97;5012846;28;20046;-76
2022/08/29 00:50:30;;;;;;;2.70;1.85;;;;;;;12.96;83.00;102297.72;5011626;28;20038;-76
2022/08/29 00:52:58;;;;;;;1.90;1.80;;;;;;;12.94;83.29;102294.72;5012317;28;20046;-77
2022/08/29 00:55:30;;;;;;;1.80;1.70;;;;;;;12.92;82.99;102299.75;5012709;28;20051;-76
2022/08/29 00:58:05;;;;;;;3.35;1.90;;;;;;;12.88;83.19;102307.84;5012363;28;20054;-76
2022/08/29 01:00:32;;;;;;;3.67;1.67;;;;;;;12.84;83.52;102315.19;5012733;28;20050;-76
2022/08/29 01:02:59;;;;;;;1.83;1.60;;;;;;;12.81;83.49;102315.25;5004898;28;20109;-77
2022/08/29 01:05:25;;;;;;;2.60;2.03;;;;;;;12.82;83.14;102311.41;4989294;28;20105;-76
2022/08/29 01:07:52;;;;;;;2.05;1.80;;;;;;;12.84;82.90;102304.50;4989646;28;20047;-76
2022/08/29 01:13:08;;;;;;;3.47;1.55;;;;;;;12.85;83.43;102314.00;4992491;28;20098;-76
2022/08/29 01:15:36;;;;;;;3.72;1.83;;;;;;;12.86;83.70;102317.44;4992553;28;20050;-76
2022/08/29 01:18:05;;;;;;;2.00;1.90;;;;;;;12.85;83.93;102316.69;4992331;28;20516;-76
2022/08/29 01:21:03;;;;;;;1.88;1.67;;;;;;;12.88;83.17;102315.84;4992634;28;20043;-76
2022/08/29 01:23:54;;;;;;;4.70;1.70;;;;;;;12.85;83.08;102307.91;5007383;28;20397;-76
2022/08/29 01:26:22;;;;;;;1.60;1.50;;;;;;;12.77;83.66;102307.34;4992691;28;20070;-76
2022/08/29 01:28:50;;;;;;;2.10;1.90;;;;;;;12.73;83.79;102309.34;4991128;28;20114;-76
2022/08/29 01:31:22;;;;;;;4.30;2.00;;;;;;;12.73;83.58;102305.91;4992929;28;20053;-77
2022/08/29 01:34:09;;;;;;;1.90;1.77;;;;;;;12.66;83.73;102312.91;4992512;28;20114;-76
2022/08/29 01:36:42;;;;;;;4.32;2.20;;;;;;;12.60;83.90;102316.50;4991894;28;20505;-75
2022/08/29 01:39:09;;;;;;;2.13;1.70;;;;;;;12.55;83.60;102309.72;4992413;28;20098;-76
2022/08/29 01:41:35;;;;;;;3.72;1.95;;;;;;;12.51;83.96;102310.97;4992418;28;20098;-76
2022/08/29 01:44:09;;;;;;;2.55;2.00;;;;;;;12.47;83.88;102312.97;4992258;28;20047;-76
2022/08/29 01:46:36;;;;;;;2.80;1.73;;;;;;;12.42;84.29;102313.44;4992040;28;20051;-77
2022/08/29 01:49:06;;;;;;;2.78;1.73;;;;;;;12.39;84.45;102319.63;4991942;28;20397;-76
2022/08/29 01:51:34;;;;;;;4.22;2.15;;;;;;;12.37;84.76;102312.03;4990818;28;20097;-76
2022/08/29 01:54:01;;;;;;;1.80;1.70;;;;;;;12.34;84.78;102310.94;4992490;28;20050;-76
2022/08/29 01:56:30;;;;;;;2.28;1.35;;;;;;;12.30;84.58;102307.59;4990877;28;20550;-76
2022/08/29 01:58:59;;;;;;;1.85;1.70;;;;;;;12.29;85.09;102308.75;4992288;28;20174;-76
2022/08/29 02:01:30;;;;;;;1.90;1.80;;;;;;;12.26;85.22;102312.25;4991785;28;20054;-76
2022/08/29 02:03:57;;;;;;;1.90;1.80;;;;;;;12.24;85.05;102305.81;4995599;28;20042;-76
2022/08/29 02:06:26;;;;;;;2.55;1.67;;;;;;;12.19;85.08;102301.72;5010538;28;20051;-76
2022/08/29 02:08:53;;;;;;;1.70;1.58;;;;;;;12.16;85.71;102304.44;4995375;28;20507;-76
2022/08/29 02:11:20;;;;;;;2.90;1.98;;;;;;;12.12;86.11;102291.16;4995808;28;20058;-76
2022/08/29 02:13:50;;;;;;;2.10;1.90;;;;;;;12.08;86.35;102298.50;4994204;28;20055;-76
2022/08/29 02:16:17;;;;;;;2.10;1.92;;;;;;;12.05;85.80;102301.22;4994859;28;20583;-77
2022/08/29 02:18:44;;;;;;;4.00;1.70;;;;;;;12.01;86.23;102299.38;4993753;28;20487;-76
2022/08/29 02:21:14;;;;;;;3.42;1.77;;;;;;;11.98;85.90;102305.56;4995145;28;20508;-76
2022/08/29 02:23:41;;;;;;;1.98;1.73;;;;;;;11.94;86.17;102309.47;4994221;28;20520;-76
2022/08/29 02:26:08;;;;;;;1.95;1.55;;;;;;;11.94;85.67;102309.47;4995111;28;20516;-76
2022/08/29 02:28:36;;;;;;;4.53;1.65;;;;;;;11.95;85.49;102303.72;4995124;28;20559;-76
2022/08/29 02:31:04;;;;;;;2.67;1.65;;;;;;;11.96;84.91;102307.91;4993038;28;20455;-76
2022/08/29 02:33:31;;;;;;;6.07;1.80;;;;;;;11.94;85.22;102304.13;4994929;28;20055;-76
2022/08/29 02:35:58;;;;;;;1.63;1.52;;;;;;;11.92;85.76;102301.13;4994840;28;20047;-76
2022/08/29 02:38:27;;;;;;;4.22;2.22;;;;;;;11.91;85.56;102307.63;4977393;28;20535;-76
2022/08/29 02:40:54;;;;;;;2.35;1.83;;;;;;;11.85;86.00;102306.59;4994934;28;20078;-77
2022/08/29 02:43:22;;;;;;;4.90;1.95;;;;;;;11.81;86.38;102308.56;4993253;28;20502;-76
2022/08/29 02:45:48;;;;;;;3.90;2.13;;;;;;;11.82;85.90;102308.16;4994619;28;20051;-76
2022/08/29 02:48:16;;;;;;;2.95;1.90;;;;;;;11.84;85.63;102310.41;4995153;28;20126;-76
2022/08/29 02:50:47;;;;;;;2.22;1.90;;;;;;;11.86;85.50;102310.75;4994641;28;20094;-76
2022/08/29 02:53:16;;;;;;;1.92;1.70;;;;;;;11.87;85.81;102304.25;4995232;28;20475;-76
2022/08/29 02:55:44;;;;;;;2.45;2.05;;;;;;;11.87;85.83;102307.69;4992732;28;20102;-76
2022/08/29 02:58:11;;;;;;;1.90;1.80;;;;;;;11.89;85.26;102318.69;4994669;28;20051;-76
2022/08/29 03:00:37;;;;;;;4.25;1.92;;;;;;;11.84;85.65;102313.84;4994133;28;20043;-76
2022/08/29 03:03:04;;;;;;;2.00;1.90;;;;;;;11.86;85.81;102321.44;5009752;28;20543;-76
2022/08/29 03:05:33;;;;;;;1.73;1.63;;;;;;;11.88;85.70;102324.44;4994486;28;20527;-76
2022/08/29 03:08:03;;;;;;;2.13;1.77;;;;;;;11.87;85.54;102317.59;4994333;28;20051;-76
2022/08/29 03:10:30;;;;;;;2.38;1.80;;;;;;;11.83;85.83;102311.56;4994325;28;20496;-76
2022/08/29 03:12:56;;;;;;;2.13;1.60;;;;;;;11.79;86.28;102319.63;4993989;28;20558;-76
2022/08/29 03:15:24;;;;;;;2.25;1.75;;;;;;;11.84;86.42;102318.41;4993775;28;20113;-76
2022/08/29 03:17:51;;;;;;;2.88;2.20;;;;;;;11.88;86.59;102319.09;4994443;28;20531;-76
2022/08/29 03:20:19;;;;;;;2.25;2.10;;;;;;;11.85;86.47;102320.69;4994659;28;20046;-76
2022/08/29 03:22:46;;;;;;;2.08;1.88;;;;;;;11.87;87.05;102322.94;4994407;28;20050;-76
2022/08/29 03:25:14;;;;;;;3.92;2.17;;;;;;;11.91;86.13;102316.38;4994056;28;20062;-76
2022/08/29 03:27:41;;;;;;;2.22;2.00;;;;;;;11.97;86.35;102311.31;4993609;28;20042;-76
2022/08/29 03:30:11;;;;;;;2.95;2.00;;;;;;;11.98;86.83;102313.56;4994047;28;20106;-77
2022/08/29 03:32:38;;;;;;;2.42;2.10;;;;;;;12.00;86.84;102305.88;4993922;28;20047;-76
2022/08/29 03:35:06;;;;;;;10.48;2.30;;;;;;;12.02;86.50;102306.22;4994223;28;20047;-76
2022/08/29 03:37:34;;;;;;;2.05;1.95;;;;;;;12.03;86.58;102296.31;4993853;28;20492;-76
2022/08/29 03:40:02;;;;;;;3.53;2.00;;;;;;;12.03;86.25;102290.97;4993951;28;20106;-76
2022/08/29 03:42:29;;;;;;;2.05;1.85;;;;;;;12.06;86.21;102281.38;4993609;28;20510;-76
2022/08/29 03:44:55;;;;;;;2.05;1.80;;;;;;;12.06;86.57;102286.72;4994086;28;20046;-77
2022/08/29 03:47:22;;;;;;;1.92;1.60;;;;;;;12.10;86.14;102295.41;4994107;28;20046;-76
2022/08/29 03:49:48;;;;;;;2.00;1.90;;;;;;;12.09;86.98;102286.66;4994038;28;20593;-77
2022/08/29 03:52:15;;;;;;;2.70;1.80;;;;;;;12.07;86.80;102283.63;4994291;28;20047;-77
2022/08/29 03:54:41;;;;;;;2.70;2.08;;;;;;;12.08;86.50;102285.16;4993992;28;20083;-77
2022/08/29 03:57:08;;;;;;;2.45;2.00;;;;;;;12.13;87.08;102287.34;4993327;28;20047;-76
2022/08/29 03:59:34;;;;;;;1.80;1.70;;;;;;;12.09;87.61;102292.00;4993911;28;20539;-76
2022/08/29 04:02:01;;;;;;;2.97;2.20;;;;;;;12.07;87.35;102291.66;4993981;28;20047;-77
2022/08/29 04:07:13;;;;;;;2.53;2.00;;;;;;;12.12;87.41;102290.41;4994119;28;20050;-77
2022/08/29 04:09:40;;;;;;;4.28;2.17;;;;;;;12.14;87.92;102288.84;4993838;28;20519;-76
2022/08/29 04:12:10;;;;;;;4.03;2.40;;;;;;;12.17;87.47;102292.59;4992944;28;20047;-76
2022/08/29 04:14:38;;;;;;;2.10;1.98;;;;;;;12.18;87.68;102289.53;5008270;28;20137;-76
2022/08/29 04:17:05;;;;;;;2.25;2.13;;;;;;;12.21;87.61;102294.03;4993315;28;20047;-78
2022/08/29 04:19:34;;;;;;;2.20;2.00;;;;;;;12.22;87.36;102289.44;4993458;28;20047;-77
2022/08/29 04:22:01;;;;;;;2.10;2.00;;;;;;;12.20;87.54;102294.44;4993134;28;20051;-77
2022/08/29 04:24:32;;;;;;;5.47;2.38;;;;;;;12.19;88.03;102291.03;4991891;28;20108;-77
2022/08/29 04:26:58;;;;;;;2.03;1.92;;;;;;;12.22;87.89;102284.13;4993289;28;20101;-78
2022/08/29 04:29:26;;;;;;;2.22;2.03;;;;;;;12.25;87.73;102285.97;4993546;28;20055;-77
2022/08/29 04:31:53;;;;;;;3.95;2.03;;;;;;;12.27;87.60;102287.06;4993153;28;20050;-77
2022/08/29 04:34:20;;;;;;;2.92;1.90;;;;;;;12.30;87.06;102286.22;4993713;28;20046;-77
2022/08/29 04:36:47;;;;;;;2.28;2.10;;;;;;;12.32;87.42;102285.81;4993768;28;20046;-77
2022/08/29 04:39:14;;;;;;;2.45;2.25;;;;;;;12.34;87.75;102280.81;4993477;28;20062;-77
2022/08/29 04:41:41;;;;;;;2.33;1.73;;;;;;;12.34;87.46;102286.91;4992750;28;20958;-77
2022/08/29 04:44:09;;;;;;;2.17;1.88;;;;;;;12.35;87.28;102287.66;4992656;28;20067;-80
2022/08/29 04:46:37;;;;;;;5.65;2.08;;;;;;;12.36;87.65;102283.81;4991558;28;20047;-77
2022/08/29 04:49:04;;;;;;;3.47;1.88;;;;;;;12.33;88.42;102293.41;4992632;28;20491;-78
2022/08/29 04:51:33;;;;;;;3.33;2.72;;;;;;;12.30;88.87;102291.56;4992663;28;20047;-78
2022/08/29 04:54:00;;;;;;;2.33;2.13;;;;;;;12.31;88.22;102295.75;4992518;28;20102;-77
2022/08/29 04:56:26;;;;;;;6.00;2.03;;;;;;;12.31;88.72;102297.66;4991807;28;20051;-76
2022/08/29 04:58:55;;;;;;;2.55;2.20;;;;;;;12.30;88.41;102302.25;4992544;28;20556;-76
2022/08/29 05:01:24;;;;;;;2.67;2.03;;;;;;;12.31;88.51;102303.00;4992543;28;20051;-76
2022/08/29 05:03:53;;;;;;;4.27;2.13;;;;;;;12.34;88.38;102302.94;4992873;28;20101;-76
2022/08/29 05:06:21;;;;;;;4.88;2.10;;;;;;;12.36;88.46;102299.84;4992886;28;20046;-78
2022/08/29 05:08:49;;;;;;;2.58;1.90;;;;;;;12.37;88.36;102296.00;4992642;28;20047;-78
2022/08/29 05:11:27;;;;;;;5.80;2.15;;;;;;;12.41;87.82;102304.69;4991340;28;20047;-76
2022/08/29 05:13:53;;;;;;;6.57;2.17;;;;;;;12.43;88.12;102304.25;4992403;28;20062;-77
2022/08/29 05:16:20;;;;;;;2.80;2.17;;;;;;;12.44;89.01;102306.53;4992948;28;20487;-77
2022/08/29 05:18:47;;;;;;;4.13;2.55;;;;;;;12.46;88.78;102311.44;4992993;28;20054;-79
2022/08/29 05:21:22;;;;;;;10.40;2.28;;;;;;;12.48;88.36;102307.19;5007967;28;20047;-77
2022/08/29 05:23:52;;;;;;;2.15;2.05;;;;;;;12.52;88.75;102315.88;4991879;28;20527;-76
2022/08/29 05:26:19;;;;;;;2.25;2.15;;;;;;;12.56;88.71;102315.81;4993104;28;20043;-77
2022/08/29 05:28:45;;;;;;;3.88;2.25;;;;;;;12.61;88.44;102310.75;4992795;28;20142;-76
2022/08/29 05:31:13;;;;;;;2.35;2.15;;;;;;;12.66;88.43;102318.25;4992257;28;20050;-76
2022/08/29 05:33:40;;;;;;;2.45;1.90;;;;;;;12.69;88.38;102317.44;4992433;28;20511;-76
2022/08/29 05:36:07;;;;;;;2.30;2.20;;;;;;;12.71;88.51;102327.72;4993176;28;20403;-76
2022/08/29 05:38:33;;;;;;;2.50;2.30;;;;;;;12.75;88.39;102325.72;4993843;28;20047;-76
2022/08/29 05:41:01;;;;;;;6.50;2.15;;;;;;;12.79;87.76;102322.97;4995814;28;20042;-76
2022/08/29 05:43:28;;;;;;;5.32;2.22;;;;;;;12.85;87.65;102324.69;4995780;28;20051;-76
2022/08/29 05:46:06;;;;;;;2.92;2.08;;;;;;;12.92;87.70;102326.47;4995886;28;20492;-76
2022/08/29 05:48:33;;;;;;;5.72;2.03;;;;;;;12.97;87.99;102317.94;4995700;28;20051;-76
2022/08/29 05:51:01;;;;;;;3.38;2.50;;;;;;;13.05;87.38;102319.28;4994503;28;20110;-76
2022/08/29 05:53:27;;;;;;;5.13;2.05;;;;;;;13.12;87.35;102329.06;4994970;28;20043;-76
2022/08/29 05:55:54;;;;;;;8.30;2.30;;;;;;;13.17;86.86;102336.63;4994299;28;20106;-76
2022/08/29 05:58:20;;;;;;;3.00;2.30;;;;;;;13.25;86.99;102330.66;4995805;28;20571;-77
2022/08/29 06:00:48;;;;;;;2.72;2.45;;;;;;;13.31;86.85;102333.59;5010874;28;20051;-77
2022/08/29 06:03:15;;;;;;;4.32;2.00;;;;;;;13.38;87.27;102325.38;4995803;28;20102;-77
2022/08/29 06:05:42;;;;;;;3.60;2.35;;;;;;;13.46;86.56;102334.75;4995495;28;20118;-79
2022/08/29 06:08:09;;;;;;;4.00;2.33;;;;;;;13.55;86.43;102332.22;4994895;28;20050;-77
2022/08/29 06:10:40;;;;;;;6.00;2.50;;;;;;;13.58;86.21;102331.38;4995201;28;20488;-78
2022/08/29 06:13:06;;;;;;;4.27;2.40;;;;;;;13.63;86.19;102336.19;4994015;28;20082;-77
2022/08/29 06:15:34;;;;;;;2.80;2.10;;;;;;;13.67;86.52;102342.22;4993474;28;20142;-76
2022/08/29 06:18:01;;;;;;;2.28;2.17;;;;;;;13.76;86.57;102335.50;4993868;28;20054;-77
2022/08/29 06:20:27;;;;;;;4.38;2.70;;;;;;;13.85;85.69;102338.34;4993739;28;20054;-77
2022/08/29 06:22:54;;;;;;;6.63;2.53;;;;;;;13.91;85.80;102334.72;4994574;28;20047;-77
2022/08/29 06:25:20;;;;;;;5.10;2.30;;;;;;;13.97;85.17;102333.03;4993453;28;20055;-77
2022/08/29 06:28:05;;;;;;;2.30;2.05;;;;;;;14.07;85.32;102339.25;4993540;28;20061;-75
2022/08/29 06:30:32;;;;;;;4.35;2.25;;;;;;;14.14;85.44;102341.72;4994878;28;20043;-75
2022/08/29 06:33:00;;;;;;;2.88;2.20;;;;;;;14.21;85.30;102341.53;4994796;28;20505;-75
2022/08/29 06:35:27;;;;;;;4.43;2.10;;;;;;;14.26;85.43;102342.94;4993482;28;20051;-81
2022/08/29 06:37:53;;;;;;;5.97;2.42;;;;;;;14.31;84.95;102337.06;4976883;28;20058;-76
2022/08/29 06:40:20;;;;;;;5.03;2.28;;;;;;;14.37;84.55;102343.41;4994987;28;20047;-75
2022/08/29 06:42:46;;;;;;;2.50;2.28;;;;;;;14.39;85.22;102349.06;4994744;28;20125;-75
2022/08/29 06:45:13;;;;;;;3.20;2.33;;;;;;;14.43;84.66;102355.09;4994806;28;20071;-75
2022/08/29 06:47:40;;;;;;;4.03;2.47;;;;;;;14.51;84.31;102355.63;4994132;28;20051;-75
2022/08/29 06:50:06;;;;;;;5.32;2.67;;;;;;;14.55;84.15;102365.06;4994658;28;20094;-75
2022/08/29 06:52:33;;;;;;;4.43;2.83;;;;;;;14.66;83.69;102356.72;4993946;28;20050;-75
2022/08/29 06:55:01;;;;;;;3.97;2.65;;;;;;;14.81;82.82;102355.09;4994565;28;20118;-76
2022/08/29 06:57:28;;;;;;;4.22;2.58;;;;;;;15.01;80.97;102363.69;4994171;28;20050;-77
2022/08/29 06:59:54;;;;;;;6.68;2.42;;;;;;;15.20;80.65;102359.25;4994358;28;20539;-76
2022/08/29 07:02:21;;;;;;;6.97;2.78;;;;;;;15.38;79.36;102361.38;4994353;28;20046;-75
2022/08/29 07:04:47;;;;;;;5.50;2.72;;;;;;;15.55;78.90;102359.28;4993129;28;20527;-75
2022/08/29 07:07:14;;;;;;;3.55;2.60;;;;;;;15.72;77.71;102359.88;4994163;28;20047;-75
2022/08/29 07:09:40;;;;;;;7.10;2.80;;;;;;;15.88;76.49;102357.03;4994312;28;20046;-74
2022/08/29 07:12:07;;;;;;;7.53;2.58;;;;;;;16.04;75.97;102359.50;4992609;28;20114;-74
2022/08/29 07:14:33;;;;;;;4.53;2.90;;;;;;;16.20;73.46;102362.00;4994034;28;20049;-75
2022/08/29 07:17:00;;;;;;;3.78;2.80;;;;;;;16.31;74.29;102359.69;4994229;28;20046;-75
2022/08/29 07:19:26;;;;;;;7.05;3.10;;;;;;;16.36;73.84;102355.69;4994087;28;20082;-76
2022/08/29 07:21:53;;;;;;;6.18;3.00;;;;;;;16.40;71.74;102355.53;4993358;28;20547;-75
2022/08/29 07:24:23;;;;;;;5.47;2.58;;;;;;;16.45;71.37;102355.72;4993091;28;20065;-76
2022/08/29 07:26:50;;;;;;;3.75;2.80;;;;;;;16.45;69.60;102357.66;4996554;28;20046;-75
2022/08/29 07:29:20;;;;;;;4.88;2.53;;;;;;;16.46;70.58;102356.47;5028912;28;20050;-76
2022/08/29 07:31:47;;;;;;;7.82;2.85;;;;;;;16.50;69.88;102354.38;5013531;28;20047;-77
2022/08/29 07:34:13;;;;;;;4.50;2.75;;;;;;;16.52;70.68;102352.75;5013301;28;20057;-75
2022/08/29 07:36:40;;;;;;;7.85;3.00;;;;;;;16.58;69.70;102347.56;5013354;28;20053;-75
2022/08/29 07:39:11;;;;;;;6.07;3.05;;;;;;;16.65;68.70;102350.00;5013174;28;20050;-75
2022/08/29 07:41:39;;;;;;;7.18;2.90;;;;;;;16.66;67.59;102349.56;5011705;28;20538;-76
2022/08/29 07:44:05;;;;;;;6.13;3.00;;;;;;;16.66;66.13;102354.19;5013220;28;20073;-76
2022/08/29 07:46:33;;;;;;;9.60;3.35;;;;;;;16.66;66.33;102356.88;5013117;28;20092;-76
2022/08/29 07:49:00;;;;;;;12.30;3.03;;;;;;;16.70;65.69;102362.88;5010934;28;20043;-75
2022/08/29 07:51:27;;;;;;;4.85;2.92;;;;;;;16.71;66.53;102360.94;5012653;28;20054;-75
2022/08/29 07:53:55;;;;;;;5.38;3.10;;;;;;;16.77;69.59;102368.00;5012955;28;20050;-78
2022/08/29 07:56:28;;;;;;;12.20;4.18;;;;;;;16.85;67.12;102369.19;5012947;28;20094;-76
2022/08/29 07:59:00;;;;;;;4.60;2.63;;;;;;;16.95;66.21;102362.66;5026827;28;20137;-76
2022/08/29 08:01:26;;;;;;;3.88;2.60;;;;;;;17.08;66.07;102361.78;5027315;28;20109;-75
2022/08/29 08:03:54;;;;;;;4.72;2.67;;;;;;;17.16;65.78;102363.75;5012193;28;20078;-76
2022/08/29 08:06:24;;;;;;;4.55;2.60;;;;;;;17.23;65.86;102362.69;5011187;28;20093;-75
2022/08/29 08:08:53;;;;;;;3.72;2.90;;;;;;;17.30;63.98;102362.41;5012830;28;20055;-74
2022/08/29 08:11:21;;;;;;;6.45;3.03;;;;;;;17.36;65.19;102359.88;5013169;28;20097;-75
2022/08/29 08:13:49;;;;;;;7.28;3.13;;;;;;;17.46;63.66;102366.78;5012736;28;20050;-74
2022/08/29 08:16:19;;;;;;;6.45;3.63;;;;;;;17.58;63.24;102374.72;5012759;28;20074;-77
2022/08/29 08:18:46;;;;;;;5.25;2.50;;;;;;;17.72;62.12;102378.00;5012123;28;20077;-76
2022/08/29 08:21:13;;;;;;;6.72;2.80;;;;;;;17.82;61.40;102372.19;5012699;28;20054;-74
2022/08/29 08:23:40;;;;;;;10.32;2.60;;;;;;;17.91;60.78;102374.13;5012134;28;20109;-74
2022/08/29 08:26:08;;;;;;;2.90;2.60;;;;;;;18.04;61.66;102373.94;5012603;28;20533;-74
2022/08/29 08:28:35;;;;;;;6.85;2.75;;;;;;;18.19;60.54;102366.72;5027631;28;20053;-75
2022/08/29 08:31:05;;;;;;;8.65;2.80;;;;;;;18.33;60.65;102366.09;5012186;28;20106;-74
2022/08/29 08:33:34;;;;;;;7.07;2.80;;;;;;;18.40;59.62;102359.63;5011947;28;20050;-75
2022/08/29 08:36:02;;;;;;;6.28;3.10;;;;;;;18.48;60.21;102366.19;5012239;28;20046;-75
2022/08/29 08:38:30;;;;;;;8.60;3.20;;;;;;;18.55;59.74;102363.91;5012299;28;20046;-75
2022/08/29 08:41:06;;;;;;;9.48;4.15;;;;;;;18.66;59.75;102363.44;5012240;28;20181;-74
2022/08/29 08:43:46;;;;;;;4.15;2.53;;;;;;;18.77;59.94;102357.56;5012039;28;20482;-74
2022/08/29 08:46:14;;;;;;;3.83;2.63;;;;;;;18.86;59.00;102360.19;5012171;28;20097;-75
2022/08/29 08:48:42;;;;;;;5.40;2.97;;;;;;;18.94;58.17;102358.66;5011689;28;20627;-74
2022/08/29 08:51:16;;;;;;;9.25;2.90;;;;;;;18.95;57.82;102360.16;5012202;28;20058;-75
2022/08/29 08:53:47;;;;;;;5.38;3.00;;;;;;;18.96;58.00;102365.09;5010372;28;20077;-74
2022/08/29 08:56:35;;;;;;;8.13;3.00;;;;;;;19.01;57.30;102362.97;5012373;28;20057;-77
2022/08/29 08:59:18;;;;;;;3.40;2.80;;;;;;;19.15;56.89;102364.97;5027500;28;20066;-76
2022/08/29 09:02:07;;;;;;;6.63;3.30;;;;;;;19.14;57.50;102368.88;5011886;28;20078;-75
2022/08/29 09:04:42;;;;;;;4.25;2.92;;;;;;;19.11;57.85;102378.66;5011858;28;20054;-75
2022/08/29 09:07:46;;;;;;;6.10;3.20;;;;;;;19.22;57.80;102375.41;5012262;28;20050;-75
2022/08/29 09:10:37;;;;;;;3.67;2.78;;;;;;;19.34;58.58;102369.03;5011715;28;20113;-75
2022/08/29 09:13:25;;;;;;;3.90;2.78;;;;;;;19.40;57.13;102364.50;5010536;28;20042;-76
2022/08/29 09:15:54;;;;;;;4.55;2.90;;;;;;;19.41;55.78;102365.25;5011535;28;20046;-78
2022/08/29 09:18:39;;;;;;;6.05;3.30;;;;;;;19.46;55.90;102373.44;5026924;28;20046;-77
2022/08/29 09:21:11;;;;;;;3.83;2.83;;;;;;;19.58;55.94;102369.03;5026738;28;20046;-78
2022/08/29 09:23:58;;;;;;;4.43;2.88;;;;;;;19.72;56.83;102371.00;5023515;28;20509;-76
2022/08/29 09:26:27;;;;;;;4.22;2.22;;;;;;;19.76;55.90;102373.53;5011825;28;20101;-75
2022/08/29 09:28:54;;;;;;;3.95;2.63;;;;;;;19.82;55.99;102374.38;5011594;28;20042;-76
2022/08/29 09:31:31;;;;;;;6.65;2.58;;;;;;;19.89;55.93;102376.72;5011414;28;20089;-75
2022/08/29 09:34:01;;;;;;;5.22;2.42;;;;;;;19.95;56.29;102369.44;5026735;28;20086;-73
2022/08/29 09:36:33;;;;;;;4.43;2.38;;;;;;;20.08;55.74;102369.91;5026718;28;20082;-74
2022/08/29 09:39:30;;;;;;;3.60;2.70;;;;;;;20.15;55.77;102374.19;5011935;28;20464;-75
2022/08/29 09:42:12;;;;;;;5.20;3.55;;;;;;;20.32;55.36;102380.63;5009181;28;20132;-74
2022/08/29 09:44:49;;;;;;;7.40;3.22;;;;;;;20.25;53.38;102367.47;5001588;28;20058;-78
2022/08/29 09:47:26;;;;;;;5.07;2.58;;;;;;;20.15;53.83;102371.50;4974498;28;20050;-78
2022/08/29 09:50:23;;;;;;;5.00;2.33;;;;;;;20.26;54.81;102369.72;5023781;28;20053;-77
2022/08/29 09:52:56;;;;;;;8.68;2.70;;;;;;;20.41;54.50;102372.41;5005831;28;20058;-75
2022/08/29 09:55:30;;;;;;;4.15;2.65;;;;;;;20.92;53.97;102368.47;5026215;28;20051;-75
2022/08/29 09:58:02;;;;;;;4.80;2.38;;;;;;;21.07;52.51;102374.56;5011503;28;20039;-76
2022/08/29 10:00:33;;;;;;;8.32;2.85;;;;;;;21.50;51.07;102370.16;5010881;28;20090;-77
2022/08/29 10:03:03;;;;;;;3.75;2.60;;;;;;;21.74;51.13;102371.88;5025544;28;20582;-75
2022/08/29 10:05:33;;;;;;;5.00;2.90;;;;;;;21.59;50.92;102372.00;5009240;28;20537;-76
2022/08/29 10:08:04;;;;;;;4.82;3.00;;;;;;;21.50;52.12;102372.13;5009547;28;20500;-76
2022/08/29 10:10:34;;;;;;;10.60;3.15;;;;;;;21.57;52.10;102377.88;5011450;28;20500;-78
2022/08/29 10:13:10;;;;;;;12.98;3.60;;;;;;;21.85;51.25;102380.13;5025544;28;20058;-82
2022/08/29 10:15:51;;;;;;;9.10;3.92;;;;;;;21.82;50.98;102378.34;5028127;28;20050;-86
2022/08/29 10:18:38;;;;;;;16.20;4.40;;;;;;;21.60;50.81;102370.75;5028452;28;20129;-86
2022/08/29 10:21:12;;;;;;;10.30;3.20;;;;;;;21.38;52.26;102367.81;5010897;28;20137;-75
2022/08/29 10:24:02;;;;;;;10.73;3.13;;;;;;;21.26;52.36;102364.97;5027166;28;20105;-77
2022/08/29 10:26:59;;;;;;;12.63;3.00;;;;;;;21.26;52.51;102375.81;5014175;28;20101;-79
2022/08/29 10:30:00;;;;;;;7.45;2.75;;;;;;;21.26;52.67;102369.63;5013878;28;20141;-75
2022/08/29 10:32:45;;;;;;;6.65;2.50;;;;;;;21.28;52.68;102367.19;5014027;28;20050;-75
2022/08/29 10:35:15;;;;;;;6.55;2.58;;;;;;;21.54;52.53;102367.25;5014080;28;20081;-75
2022/08/29 10:37:50;;;;;;;9.30;2.50;;;;;;;21.68;52.33;102368.34;5014149;28;20059;-77
2022/08/29 10:40:25;;;;;;;8.13;2.47;;;;;;;21.61;52.88;102366.81;5014219;28;20034;-75
2022/08/29 10:43:12;;;;;;;6.05;2.85;;;;;;;21.55;52.53;102374.91;5028705;28;20494;-75
2022/08/29 10:45:49;;;;;;;5.57;2.53;;;;;;;21.54;52.98;102372.66;5014241;28;20501;-75
2022/08/29 10:48:25;;;;;;;5.70;2.75;;;;;;;21.48;53.30;102369.91;5014457;28;20082;-76
2022/08/29 10:51:30;;;;;;;5.95;2.10;;;;;;;21.58;52.63;102363.13;5013826;28;20097;-75
2022/08/29 10:54:17;;;;;;;4.82;2.17;;;;;;;21.88;52.63;102368.31;5028972;28;20068;-74
2022/08/29 10:56:47;;;;;;;2.55;2.00;;;;;;;21.88;51.25;102357.47;5012754;28;20058;-74
2022/08/29 10:59:22;;;;;;;3.40;2.35;;;;;;;21.84;50.48;102346.84;5013352;28;21097;-74
2022/08/29 11:02:18;;;;;;;3.03;2.30;;;;;;;22.30;50.95;102351.41;5013982;28;20042;-74
2022/08/29 11:04:52;;;;;;;147.30;117.00;;;;;;;22.82;50.17;102354.69;5013885;28;20046;-74
2022/08/29 11:07:27;;;;;;;7.60;4.03;;;;;;;23.20;49.23;102339.03;5013617;28;20053;-74
2022/08/29 11:09:59;;;;;;;6.80;3.28;;;;;;;23.31;49.56;102341.03;5013935;28;20051;-74
2022/08/29 11:12:43;;;;;;;6.32;2.40;;;;;;;22.99;49.93;102335.03;5013166;28;20514;-75
2022/08/29 11:15:36;;;;;;;4.22;2.30;;;;;;;22.51;50.39;102341.19;5013704;28;20100;-74
2022/08/29 11:18:40;;;;;;;4.68;2.30;;;;;;;22.25;51.32;102341.28;5013655;28;20526;-74
2022/08/29 11:21:28;;;;;;;7.90;2.72;;;;;;;22.07;52.02;102342.38;5013515;28;20050;-74
2022/08/29 11:23:57;;;;;;;3.65;2.25;;;;;;;22.01;51.17;102333.44;5012373;28;20065;-74
2022/08/29 11:26:32;;;;;;;4.25;2.22;;;;;;;21.90;51.75;102333.34;5012033;28;20328;-74
2022/08/29 11:29:23;;;;;;;5.30;2.40;;;;;;;21.94;51.90;102329.19;5011503;28;20046;-74
2022/08/29 11:32:02;;;;;;;6.38;3.10;;;;;;;22.10;51.71;102330.56;5013278;28;20148;-74
2022/08/29 11:35:01;;;;;;;5.50;2.28;;;;;;;22.36;50.98;102332.47;5012570;28;20054;-75
2022/08/29 11:37:36;;;;;;;2.10;1.90;;;;;;;22.24;51.14;102326.22;5002444;28;20475;-75
2022/08/29 11:40:16;;;;;;;3.92;2.20;;;;;;;22.18;50.25;102333.56;5013261;28;20690;-74
2022/08/29 11:42:47;;;;;;;5.93;2.55;;;;;;;22.27;50.53;102322.53;5012499;28;20113;-74
2022/08/29 11:45:31;;;;;;;6.93;2.33;;;;;;;22.37;49.72;102325.81;5013472;28;20042;-75
2022/08/29 11:48:14;;;;;;;3.67;2.20;;;;;;;22.29;49.91;102315.41;5011923;28;20046;-74